createdAt,value
2022-08-03T00:01:49.499Z,14.21
2022-08-03T00:04:16.620Z,14.23
2022-08-03T00:06:43.671Z,14.22
2022-08-03T00:09:11.058Z,14.47
2022-08-03T00:11:38.639Z,15.05
2022-08-03T00:14:06.420Z,14.83
2022-08-03T00:16:33.064Z,14.87
2022-08-03T00:19:01.162Z,14.19
2022-08-03T00:21:28.503Z,14.29
2022-08-03T00:23:58.660Z,14.54
2022-08-03T00:26:28.258Z,14.41
2022-08-03T00:28:54.915Z,14.76
2022-08-03T00:31:29.678Z,14.37
2022-08-03T00:34:18.313Z,13.59
2022-08-03T00:37:04.114Z,14.61
2022-08-03T00:39:33.347Z,11.21
2022-08-03T00:42:06.308Z,14.83
2022-08-03T00:44:42.820Z,14.45
2022-08-03T00:47:11.294Z,14.74
2022-08-03T00:49:39.458Z,14.89
2022-08-03T00:52:12.793Z,14.86
2022-08-03T00:54:40.385Z,14.09
2022-08-03T00:57:07.808Z,14.34
2022-08-03T00:59:34.457Z,13.54
2022-08-03T01:02:01.071Z,14.00
2022-08-03T01:04:28.011Z,13.65
2022-08-03T01:07:03.873Z,13.97
2022-08-03T01:09:49.216Z,14.25
2022-08-03T01:12:34.983Z,13.26
2022-08-03T01:15:33.978Z,14.25
2022-08-03T01:18:10.058Z,13.93
2022-08-03T01:20:40.436Z,13.49
2022-08-03T01:23:17.612Z,12.93
2022-08-03T01:26:15.329Z,14.52
2022-08-03T01:29:03.684Z,14.05
2022-08-03T01:32:58.244Z,13.85
2022-08-03T01:34:31.558Z,14.12
2022-08-03T01:37:03.160Z,14.09
2022-08-03T01:39:32.913Z,13.68
2022-08-03T01:42:03.884Z,13.80
2022-08-03T01:44:33.799Z,13.79
2022-08-03T01:47:02.300Z,13.52
2022-08-03T01:49:32.335Z,13.31
2022-08-03T01:52:05.003Z,13.69
2022-08-03T01:54:41.910Z,13.58
2022-08-03T01:57:10.294Z,13.67
2022-08-03T01:59:38.604Z,13.31
2022-08-03T02:02:15.495Z,13.62
2022-08-03T02:04:56.817Z,12.72
2022-08-03T02:07:25.788Z,13.08
2022-08-03T02:09:54.290Z,12.98
2022-08-03T02:12:23.855Z,13.28
2022-08-03T02:14:51.402Z,13.28
2022-08-03T02:17:38.689Z,13.16
2022-08-03T02:20:08.446Z,12.53
2022-08-03T02:22:35.962Z,12.99
2022-08-03T02:25:02.707Z,13.24
2022-08-03T02:27:31.778Z,13.28
2022-08-03T02:30:02.748Z,13.94
2022-08-03T02:32:37.773Z,13.34
2022-08-03T02:35:08.503Z,13.07
2022-08-03T02:37:42.645Z,13.57
2022-08-03T02:40:12.995Z,13.16
2022-08-03T02:42:42.631Z,13.55
2022-08-03T02:45:11.917Z,13.23
2022-08-03T02:47:54.329Z,13.38
2022-08-03T02:50:23.461Z,13.87
2022-08-03T02:52:51.923Z,13.29
2022-08-03T02:55:20.268Z,13.29
2022-08-03T02:57:48.237Z,13.24
2022-08-03T03:00:19.500Z,13.36
2022-08-03T03:02:57.472Z,12.86
2022-08-03T03:05:53.716Z,12.92
2022-08-03T03:08:18.980Z,13.74
2022-08-03T03:10:55.730Z,12.98
2022-08-03T03:13:23.378Z,13.77
2022-08-03T03:15:52.013Z,13.28
2022-08-03T03:18:22.537Z,13.20
2022-08-03T03:20:52.511Z,12.95
2022-08-03T03:23:21.557Z,13.39
2022-08-03T03:25:49.224Z,12.74
2022-08-03T03:28:16.204Z,12.55
2022-08-03T03:30:43.203Z,12.42
2022-08-03T03:33:09.903Z,12.67
2022-08-03T03:35:38.797Z,13.10
2022-08-03T03:38:07.141Z,12.69
2022-08-03T03:40:35.822Z,12.45
2022-08-03T03:43:03.196Z,12.25
2022-08-03T03:45:31.082Z,12.69
2022-08-03T03:48:00.421Z,12.57
2022-08-03T03:50:28.139Z,12.73
2022-08-03T03:52:54.749Z,13.03
2022-08-03T03:55:21.409Z,12.61
2022-08-03T03:57:48.028Z,12.56
2022-08-03T04:00:16.566Z,12.48
2022-08-03T04:02:43.664Z,12.36
2022-08-03T04:05:10.472Z,11.96
2022-08-03T04:07:57.740Z,12.35
2022-08-03T04:10:31.538Z,12.45
2022-08-03T04:13:01.111Z,12.65
2022-08-03T04:15:29.076Z,12.16
2022-08-03T04:17:59.077Z,12.87
2022-08-03T04:20:29.715Z,12.99
2022-08-03T04:22:58.316Z,13.02
2022-08-03T04:25:28.013Z,13.05
2022-08-03T04:28:08.063Z,13.60
2022-08-03T04:30:47.221Z,13.61
2022-08-03T04:33:16.239Z,13.70
2022-08-03T04:36:01.087Z,13.59
2022-08-03T04:38:31.437Z,14.02
2022-08-03T04:40:59.849Z,14.47
2022-08-03T04:43:27.768Z,14.91
2022-08-03T04:45:56.548Z,14.54
2022-08-03T04:48:23.917Z,14.47
2022-08-03T04:50:50.919Z,14.40
2022-08-03T04:53:17.614Z,14.32
2022-08-03T04:55:44.428Z,14.50
2022-08-03T04:58:11.180Z,14.45
2022-08-03T05:00:38.024Z,14.95
2022-08-03T05:03:04.839Z,16.06
2022-08-03T05:05:50.568Z,15.98
2022-08-03T05:08:20.572Z,16.51
2022-08-03T05:10:59.048Z,16.53
2022-08-03T05:13:26.400Z,17.33
2022-08-03T05:15:52.985Z,17.91
2022-08-03T05:18:20.209Z,17.57
2022-08-03T05:20:47.014Z,17.91
2022-08-03T05:23:13.720Z,18.37
2022-08-03T05:25:40.543Z,17.71
2022-08-03T05:28:16.678Z,18.22
2022-08-03T05:30:43.445Z,17.29
2022-08-03T05:33:10.867Z,17.39
2022-08-03T05:36:01.413Z,17.39
2022-08-03T05:38:28.519Z,17.61
2022-08-03T05:41:23.302Z,17.90
2022-08-03T05:43:44.451Z,17.32
2022-08-03T05:46:12.275Z,17.66
2022-08-03T05:48:39.535Z,17.64
2022-08-03T05:51:06.178Z,17.91
2022-08-03T05:53:35.958Z,17.99
2022-08-03T05:56:14.147Z,18.28
2022-08-03T05:58:44.138Z,18.32
2022-08-03T06:01:10.845Z,18.11
2022-08-03T06:03:37.644Z,18.17
2022-08-03T06:06:04.526Z,18.59
2022-08-03T06:08:31.182Z,18.16
2022-08-03T06:10:57.876Z,18.98
2022-08-03T06:13:24.712Z,18.74
2022-08-03T06:15:51.305Z,18.86
2022-08-03T06:18:19.075Z,19.30
2022-08-03T06:21:14.253Z,19.66
2022-08-03T06:23:55.486Z,19.43
2022-08-03T06:26:26.984Z,19.95
2022-08-03T06:28:55.181Z,19.98
2022-08-03T06:31:24.183Z,19.92
2022-08-03T06:34:30.651Z,20.52
2022-08-03T06:36:37.849Z,20.51
2022-08-03T06:39:05.186Z,20.68
2022-08-03T06:41:38.054Z,20.35
2022-08-03T06:44:11.714Z,20.42
2022-08-03T06:46:39.603Z,20.99
2022-08-03T06:49:08.675Z,21.06
2022-08-03T06:52:04.186Z,20.84
2022-08-03T06:54:22.187Z,21.03
2022-08-03T06:56:48.935Z,21.54
2022-08-03T07:00:10.363Z,21.15
2022-08-03T07:02:02.438Z,21.66
2022-08-03T07:04:29.069Z,22.07
2022-08-03T07:06:56.066Z,21.84
2022-08-03T07:09:22.692Z,21.93
2022-08-03T07:11:49.352Z,21.69
2022-08-03T07:14:15.969Z,22.34
2022-08-03T07:16:42.751Z,22.56
2022-08-03T07:19:09.384Z,22.13
2022-08-03T07:21:36.043Z,21.92
2022-08-03T07:24:02.884Z,20.55
2022-08-03T07:26:29.654Z,23.13
2022-08-03T07:28:56.384Z,23.56
2022-08-03T07:31:23.368Z,23.44
2022-08-03T07:33:50.032Z,22.12
2022-08-03T07:36:16.947Z,20.90
2022-08-03T07:38:43.702Z,23.57
2022-08-03T07:41:10.473Z,23.66
2022-08-03T07:43:37.136Z,23.78
2022-08-03T07:46:04.080Z,23.88
2022-08-03T07:48:30.784Z,24.13
2022-08-03T07:50:57.593Z,24.32
2022-08-03T07:53:24.257Z,24.49
2022-08-03T07:55:51.028Z,25.11
2022-08-03T07:58:22.087Z,24.37
2022-08-03T08:00:51.034Z,24.96
2022-08-03T08:03:17.746Z,24.49
2022-08-03T08:05:44.775Z,24.38
2022-08-03T08:08:11.511Z,22.50
2022-08-03T08:10:38.358Z,24.69
2022-08-03T08:13:05.330Z,24.61
2022-08-03T08:15:32.779Z,24.99
2022-08-03T08:18:01.338Z,25.14
2022-08-03T08:20:32.200Z,25.41
2022-08-03T08:23:19.989Z,26.04
2022-08-03T08:25:52.814Z,25.97
2022-08-03T08:28:32.482Z,26.03
2022-08-03T08:31:01.262Z,26.05
2022-08-03T08:33:37.659Z,26.24
2022-08-03T08:36:15.539Z,26.44
2022-08-03T08:38:43.201Z,26.61
2022-08-03T08:41:11.078Z,26.87
2022-08-03T08:43:37.797Z,26.73
2022-08-03T08:46:06.188Z,27.57
2022-08-03T08:48:32.814Z,27.16
2022-08-03T08:51:00.797Z,27.46
2022-08-03T08:53:29.190Z,28.03
2022-08-03T08:56:00.965Z,27.89
2022-08-03T08:58:38.004Z,28.07
2022-08-03T09:01:05.882Z,27.99
2022-08-03T09:03:36.086Z,28.33
2022-08-03T09:06:03.872Z,28.18
2022-08-03T09:08:32.177Z,27.55
2022-08-03T09:10:59.485Z,28.15
2022-08-03T09:13:26.560Z,27.98
2022-08-03T09:16:12.249Z,28.43
2022-08-03T09:18:39.614Z,28.58
2022-08-03T09:21:36.275Z,28.04
2022-08-03T09:24:06.497Z,28.08
2022-08-03T09:26:37.996Z,28.66
2022-08-03T09:29:15.343Z,29.17
2022-08-03T09:31:45.073Z,29.05
2022-08-03T09:34:14.619Z,29.16
2022-08-03T09:36:44.070Z,29.16
2022-08-03T09:39:13.141Z,28.70
2022-08-03T09:41:45.276Z,29.37
2022-08-03T09:44:24.118Z,29.07
2022-08-03T09:46:55.988Z,29.32
2022-08-03T09:49:23.389Z,29.20
2022-08-03T09:52:32.367Z,29.17
2022-08-03T09:54:37.137Z,29.22
2022-08-03T09:57:04.154Z,29.38
2022-08-03T09:59:32.276Z,30.08
2022-08-03T10:02:00.611Z,29.99
2022-08-03T10:04:28.506Z,29.78
2022-08-03T10:07:03.664Z,30.36
2022-08-03T10:09:30.359Z,29.88
2022-08-03T10:11:57.434Z,29.13
2022-08-03T10:14:24.624Z,29.56
2022-08-03T10:16:51.215Z,29.83
2022-08-03T10:19:18.405Z,30.22
2022-08-03T10:21:53.676Z,30.23
2022-08-03T10:24:25.019Z,30.56
2022-08-03T10:26:53.472Z,30.78
2022-08-03T10:29:24.934Z,31.04
2022-08-03T10:31:58.205Z,31.67
2022-08-03T10:34:35.207Z,31.41
2022-08-03T10:37:08.048Z,30.77
2022-08-03T10:39:35.982Z,30.90
2022-08-03T10:42:05.599Z,30.96
2022-08-03T10:44:42.246Z,30.08
2022-08-03T10:47:10.646Z,30.17
2022-08-03T10:49:38.253Z,30.11
2022-08-03T10:52:13.793Z,28.71
2022-08-03T10:54:53.102Z,30.97
2022-08-03T10:57:46.475Z,31.01
2022-08-03T11:00:20.791Z,30.87
2022-08-03T11:03:02.634Z,31.65
2022-08-03T11:05:32.125Z,31.33
2022-08-03T11:08:18.402Z,31.63
2022-08-03T11:10:45.723Z,31.52
2022-08-03T11:13:16.875Z,31.33
2022-08-03T11:15:46.689Z,30.67
2022-08-03T11:18:14.671Z,31.04
2022-08-03T11:20:58.366Z,30.74
2022-08-03T11:24:04.285Z,30.40
2022-08-03T11:26:34.316Z,30.75
2022-08-03T11:29:33.284Z,30.99
2022-08-03T11:32:00.519Z,30.81
2022-08-03T11:34:27.142Z,31.06
2022-08-03T11:37:20.325Z,31.61
2022-08-03T11:39:51.851Z,31.71
2022-08-03T11:42:32.219Z,31.62
2022-08-03T11:45:01.193Z,31.48
2022-08-03T11:47:34.096Z,30.16
2022-08-03T11:50:07.788Z,32.04
2022-08-03T11:52:45.443Z,31.23
2022-08-03T11:55:22.001Z,30.58
2022-08-03T11:59:17.557Z,32.00
2022-08-03T12:00:36.342Z,32.35
2022-08-03T12:03:09.150Z,32.55
2022-08-03T12:05:51.344Z,32.30
2022-08-03T12:08:33.675Z,31.65
2022-08-03T12:11:02.637Z,32.08
2022-08-03T12:14:37.326Z,32.58
2022-08-03T12:16:32.731Z,32.36
2022-08-03T12:19:01.767Z,31.09
2022-08-03T12:21:29.460Z,32.36
2022-08-03T12:24:05.203Z,32.23
2022-08-03T12:26:58.926Z,32.03
2022-08-03T12:29:27.271Z,31.11
2022-08-03T12:31:53.835Z,30.90
2022-08-03T12:34:20.520Z,32.29
2022-08-03T12:36:55.833Z,32.49
2022-08-03T12:39:27.113Z,32.08
2022-08-03T12:41:59.266Z,31.99
2022-08-03T12:44:34.405Z,31.73
2022-08-03T12:47:02.750Z,31.57
2022-08-03T12:49:30.438Z,32.31
2022-08-03T12:52:01.723Z,31.66
2022-08-03T12:54:32.473Z,32.06
2022-08-03T12:57:10.342Z,31.97
2022-08-03T12:59:42.155Z,32.12
2022-08-03T13:02:26.380Z,33.16
2022-08-03T13:04:54.596Z,32.56
2022-08-03T13:07:22.783Z,32.58
2022-08-03T13:09:55.164Z,32.95
2022-08-03T13:12:24.251Z,32.28
2022-08-03T13:14:53.240Z,31.43
2022-08-03T13:17:20.390Z,31.43
2022-08-03T13:19:48.427Z,31.24
2022-08-03T13:22:15.000Z,31.14
2022-08-03T13:24:44.687Z,30.15
2022-08-03T13:28:01.233Z,31.77
2022-08-03T13:29:58.908Z,32.54
2022-08-03T13:32:25.740Z,32.37
2022-08-03T13:34:52.531Z,33.04
2022-08-03T13:37:19.127Z,32.99
2022-08-03T13:39:59.800Z,32.77
2022-08-03T13:42:35.167Z,32.67
2022-08-03T13:45:02.814Z,32.13
2022-08-03T13:47:29.632Z,32.38
2022-08-03T13:50:01.845Z,31.97
2022-08-03T13:52:31.363Z,31.24
2022-08-03T13:54:58.141Z,32.51
2022-08-03T13:58:04.794Z,32.70
2022-08-03T14:00:12.040Z,33.06
2022-08-03T14:02:38.736Z,33.03
2022-08-03T14:05:05.919Z,33.52
2022-08-03T14:07:32.565Z,33.85
2022-08-03T14:09:59.855Z,33.94
2022-08-03T14:12:26.641Z,33.33
2022-08-03T14:14:55.957Z,32.30
2022-08-03T14:17:24.819Z,32.02
2022-08-03T14:19:53.533Z,32.31
2022-08-03T14:22:21.527Z,32.82
2022-08-03T14:24:49.191Z,32.87
2022-08-03T14:27:16.919Z,32.93
2022-08-03T14:29:43.613Z,32.81
2022-08-03T14:32:13.203Z,32.40
2022-08-03T14:34:40.805Z,32.21
2022-08-03T14:37:07.993Z,33.02
2022-08-03T14:42:21.394Z,32.53
2022-08-03T14:44:48.048Z,33.21
2022-08-03T14:47:14.846Z,33.46
2022-08-03T14:50:37.525Z,33.80
2022-08-03T14:52:28.874Z,33.00
2022-08-03T14:54:55.590Z,33.08
2022-08-03T14:57:22.454Z,32.99
2022-08-03T14:59:56.771Z,32.09
2022-08-03T19:06:08.551Z,24.22
2022-08-03T19:09:06.275Z,23.93
2022-08-03T19:12:14.017Z,24.87
2022-08-03T19:14:49.407Z,23.67
2022-08-03T19:17:21.278Z,21.28
2022-08-03T19:19:53.494Z,23.78
2022-08-03T19:22:24.497Z,20.91
2022-08-03T19:25:01.449Z,25.05
2022-08-03T19:27:32.824Z,21.20
2022-08-03T19:30:14.116Z,21.13
2022-08-03T19:32:50.128Z,22.52
2022-08-03T19:35:18.903Z,24.33
2022-08-03T19:37:55.401Z,24.26
2022-08-03T19:40:27.710Z,24.47
2022-08-03T19:42:59.945Z,24.52
2022-08-03T19:46:06.080Z,23.27
2022-08-03T19:48:22.248Z,22.03
2022-08-03T19:50:52.741Z,24.30
2022-08-03T19:53:20.553Z,23.98
2022-08-03T19:55:53.657Z,23.52
2022-08-03T19:58:28.478Z,24.01
2022-08-03T20:00:56.056Z,24.01
2022-08-03T20:03:26.999Z,23.97
2022-08-03T20:06:10.740Z,23.57
2022-08-03T20:08:44.388Z,23.53
2022-08-03T20:11:11.530Z,22.71
2022-08-03T20:13:38.964Z,23.19
2022-08-03T20:16:26.038Z,23.13
2022-08-03T20:18:52.599Z,22.60
2022-08-03T20:21:21.684Z,23.23
2022-08-03T20:24:01.805Z,23.39
2022-08-03T20:26:31.611Z,23.58
2022-08-03T20:29:09.161Z,23.50
2022-08-03T20:31:37.221Z,22.50
2022-08-03T20:34:05.167Z,22.33
2022-08-03T20:36:31.964Z,22.75
2022-08-03T20:38:59.084Z,23.06
2022-08-03T20:41:26.441Z,23.08
2022-08-03T20:43:53.310Z,22.66
2022-08-03T20:46:32.105Z,23.01
2022-08-03T20:49:05.993Z,22.76
2022-08-03T20:51:50.140Z,22.45
2022-08-03T20:57:09.523Z,22.42
2022-08-03T20:59:50.876Z,22.25
2022-08-03T21:02:29.545Z,22.32
2022-08-03T21:05:03.492Z,22.29
2022-08-03T21:08:04.988Z,22.11
2022-08-03T21:10:41.952Z,20.45
2022-08-03T21:13:14.055Z,21.94
2022-08-03T21:13:38.896Z,22.39
2022-08-03T21:16:14.128Z,21.71
2022-08-03T21:18:49.995Z,22.29
2022-08-03T21:21:19.711Z,21.78
2022-08-03T21:23:53.900Z,22.23
2022-08-03T21:26:27.912Z,21.44
2022-08-03T21:28:56.040Z,22.15
2022-08-03T21:31:26.240Z,22.06
2022-08-03T21:34:04.619Z,21.97
2022-08-03T21:36:37.124Z,21.90
2022-08-03T21:39:08.145Z,21.59
2022-08-03T21:41:37.024Z,21.46
2022-08-03T21:44:06.889Z,21.29
2022-08-03T21:46:38.078Z,21.09
2022-08-03T21:50:05.363Z,21.45
2022-08-03T21:51:58.430Z,21.09
2022-08-03T21:54:32.449Z,21.09
2022-08-03T21:57:04.332Z,21.58
2022-08-03T21:59:35.957Z,21.53
2022-08-03T22:02:02.930Z,21.11
2022-08-03T22:04:55.161Z,21.10
2022-08-03T22:07:22.804Z,20.98
2022-08-03T22:09:51.518Z,21.37
2022-08-03T22:12:23.530Z,20.94
2022-08-03T22:15:01.328Z,20.81
2022-08-03T22:17:54.709Z,20.87
2022-08-03T22:20:17.582Z,21.08
2022-08-03T22:22:55.366Z,20.81
2022-08-03T22:25:31.928Z,21.07
2022-08-03T22:28:08.633Z,20.88
2022-08-03T22:30:36.151Z,20.67
2022-08-03T22:33:05.460Z,20.48
2022-08-03T22:35:47.344Z,20.40
2022-08-03T22:38:17.103Z,20.46
2022-08-03T22:40:47.139Z,20.71
2022-08-03T22:43:14.197Z,19.89
2022-08-03T22:46:07.126Z,20.49
2022-08-03T22:48:33.982Z,20.60
2022-08-03T22:51:02.732Z,20.56
2022-08-03T22:53:29.742Z,20.41
2022-08-03T22:55:56.915Z,20.18
2022-08-03T22:58:23.717Z,19.98
2022-08-03T23:00:57.454Z,20.22
2022-08-03T23:04:01.281Z,20.23
2022-08-03T23:06:19.820Z,20.00
2022-08-03T23:08:48.399Z,20.00
2022-08-03T23:11:18.445Z,19.84
2022-08-03T23:13:47.076Z,19.92
2022-08-03T23:16:16.098Z,19.79
2022-08-03T23:18:56.505Z,19.91
2022-08-03T23:21:59.844Z,20.09
2022-08-03T23:24:28.467Z,19.75
2022-08-03T23:26:57.015Z,19.78
2022-08-03T23:29:23.850Z,19.58
2022-08-03T23:31:53.641Z,19.65
2022-08-03T23:34:21.707Z,19.38
2022-08-03T23:36:49.301Z,19.84
2022-08-03T23:39:19.404Z,19.78
2022-08-03T23:41:48.375Z,19.61
2022-08-03T23:44:17.161Z,19.55
2022-08-03T23:46:45.584Z,19.27
2022-08-03T23:49:12.117Z,19.38
2022-08-03T23:52:02.989Z,19.22
2022-08-03T23:55:11.333Z,19.53
2022-08-03T23:57:40.948Z,19.49
